createdAt,value
2018-01-24T00:01:55.368Z,8.30
2018-01-24T00:04:22.841Z,8.30
2018-01-24T00:06:50.310Z,8.40
2018-01-24T00:09:17.796Z,8.30
2018-01-24T00:11:45.261Z,8.20
2018-01-24T00:14:12.750Z,8.20
2018-01-24T00:16:40.985Z,8.20
2018-01-24T00:19:08.445Z,8.20
2018-01-24T00:21:35.914Z,8.30
2018-01-24T00:24:03.383Z,8.30
2018-01-24T00:26:30.859Z,8.40
2018-01-24T00:28:58.323Z,8.40
2018-01-24T00:31:26.575Z,8.50
2018-01-24T00:33:54.040Z,8.60
2018-01-24T00:36:21.522Z,8.50
2018-01-24T00:38:49.750Z,8.40
2018-01-24T00:41:17.260Z,8.60
2018-01-24T00:43:45.134Z,8.40
2018-01-24T00:46:12.617Z,8.40
2018-01-24T00:48:40.083Z,8.50
2018-01-24T00:51:07.567Z,8.50
2018-01-24T00:53:35.039Z,8.50
2018-01-24T00:56:02.524Z,8.60
2018-01-24T00:58:29.999Z,8.70
2018-01-24T01:00:57.466Z,8.70
2018-01-24T01:03:24.931Z,8.80
2018-01-24T01:05:52.416Z,8.80
2018-01-24T01:08:19.892Z,8.90
2018-01-24T01:10:48.132Z,9.00
2018-01-24T01:13:15.608Z,8.80
2018-01-24T01:15:43.086Z,9.00
2018-01-24T01:18:11.320Z,9.20
2018-01-24T01:20:38.790Z,9.20
2018-01-24T01:23:06.259Z,9.20
2018-01-24T01:25:33.730Z,9.10
2018-01-24T01:28:01.190Z,9.00
2018-01-24T01:30:29.443Z,8.80
2018-01-24T01:32:56.893Z,8.80
2018-01-24T01:35:24.364Z,8.70
2018-01-24T01:37:51.865Z,8.70
2018-01-24T01:40:19.331Z,8.60
2018-01-24T01:42:46.803Z,8.50
2018-01-24T01:45:14.262Z,8.60
2018-01-24T01:47:41.755Z,8.50
2018-01-24T01:50:09.216Z,8.60
2018-01-24T01:52:36.691Z,8.60
2018-01-24T01:55:04.943Z,8.60
2018-01-24T01:57:32.409Z,8.60
2018-01-24T01:59:59.879Z,8.60
2018-01-24T02:02:27.346Z,8.60
2018-01-24T02:04:55.570Z,8.60
2018-01-24T02:07:23.051Z,8.80
2018-01-24T02:09:50.561Z,8.60
2018-01-24T02:12:17.992Z,8.60
2018-01-24T02:14:45.467Z,8.50
2018-01-24T02:17:13.719Z,8.50
2018-01-24T02:19:41.177Z,8.70
2018-01-24T02:22:08.643Z,8.50
2018-01-24T02:24:36.879Z,8.50
2018-01-24T02:27:04.402Z,8.70
2018-01-24T02:29:31.842Z,8.50
2018-01-24T02:32:00.086Z,8.60
2018-01-24T02:34:27.559Z,8.60
2018-01-24T02:36:55.029Z,8.60
2018-01-24T02:39:23.271Z,8.50
2018-01-24T02:41:50.749Z,8.50
2018-01-24T02:44:18.219Z,8.50
2018-01-24T02:46:45.704Z,8.50
2018-01-24T02:49:13.934Z,8.50
2018-01-24T02:51:41.394Z,8.50
2018-01-24T02:54:08.861Z,8.70
2018-01-24T02:56:38.078Z,8.70
2018-01-24T02:59:06.298Z,8.70
2018-01-24T03:01:34.424Z,8.70
2018-01-24T03:04:02.695Z,8.80
2018-01-24T03:06:30.179Z,8.80
2018-01-24T03:08:58.397Z,8.90
2018-01-24T03:11:25.875Z,8.90
2018-01-24T03:13:53.333Z,8.90
2018-01-24T03:16:20.806Z,8.90
2018-01-24T03:18:48.280Z,8.90
2018-01-24T03:21:16.537Z,8.90
2018-01-24T03:23:44.001Z,8.90
2018-01-24T03:26:11.462Z,9.00
2018-01-24T03:28:39.698Z,9.30
2018-01-24T03:31:07.169Z,9.30
2018-01-24T03:33:34.650Z,9.30
2018-01-24T03:36:02.116Z,9.40
2018-01-24T03:38:30.360Z,9.40
2018-01-24T03:40:57.818Z,9.40
2018-01-24T03:43:25.299Z,9.50
2018-01-24T03:45:52.754Z,9.50
2018-01-24T03:48:20.230Z,9.40
2018-01-24T03:50:48.458Z,9.50
2018-01-24T03:53:15.942Z,9.50
2018-01-24T03:55:43.417Z,9.50
2018-01-24T03:58:11.655Z,9.40
2018-01-24T04:00:39.895Z,9.50
2018-01-24T04:03:07.368Z,9.50
2018-01-24T04:05:35.132Z,9.40
2018-01-24T04:08:02.603Z,9.40
2018-01-24T04:10:30.067Z,9.40
2018-01-24T04:12:57.544Z,9.40
2018-01-24T04:15:25.027Z,9.50
2018-01-24T04:17:53.271Z,9.50
2018-01-24T04:20:20.743Z,9.50
2018-01-24T04:22:48.225Z,9.60
2018-01-24T04:25:16.453Z,9.80
2018-01-24T04:27:44.696Z,9.80
2018-01-24T04:30:12.159Z,9.80
2018-01-24T04:32:39.631Z,9.80
2018-01-24T04:35:07.102Z,9.90
2018-01-24T04:37:34.630Z,10.00
2018-01-24T04:40:02.120Z,10.00
2018-01-24T04:42:29.711Z,10.00
2018-01-24T04:44:57.185Z,10.00
2018-01-24T04:47:24.711Z,10.00
2018-01-24T04:49:52.999Z,10.00
2018-01-24T04:52:20.479Z,10.00
2018-01-24T04:54:48.710Z,10.00
2018-01-24T04:57:16.198Z,10.00
2018-01-24T04:59:43.666Z,10.10
2018-01-24T05:02:11.140Z,10.20
2018-01-24T05:04:39.378Z,10.20
2018-01-24T05:07:06.858Z,10.20
2018-01-24T05:09:34.331Z,10.30
2018-01-24T05:12:02.570Z,10.30
2018-01-24T05:14:30.047Z,10.20
2018-01-24T05:16:57.524Z,10.30
2018-01-24T05:19:25.753Z,10.20
2018-01-24T05:21:53.756Z,10.20
2018-01-24T05:24:21.231Z,10.20
2018-01-24T05:26:50.127Z,10.30
2018-01-24T05:29:18.367Z,10.30
2018-01-24T05:31:45.831Z,10.30
2018-01-24T05:34:13.307Z,10.30
2018-01-24T05:36:41.541Z,10.30
2018-01-24T05:39:09.016Z,10.30
2018-01-24T05:41:36.479Z,10.40
2018-01-24T05:44:03.963Z,10.40
2018-01-24T05:46:32.204Z,10.40
2018-01-24T05:48:59.674Z,10.60
2018-01-24T05:51:27.151Z,10.40
2018-01-24T05:53:55.397Z,10.40
2018-01-24T05:56:22.871Z,10.40
2018-01-24T05:58:50.347Z,10.50
2018-01-24T06:01:18.580Z,10.50
2018-01-24T06:03:46.052Z,10.50
2018-01-24T06:06:13.518Z,10.60
2018-01-24T06:08:40.999Z,10.50
2018-01-24T06:11:09.235Z,10.50
2018-01-24T06:13:36.708Z,10.60
2018-01-24T06:16:04.170Z,10.60
2018-01-24T06:18:31.650Z,10.50
2018-01-24T06:20:59.880Z,10.50
2018-01-24T06:23:27.358Z,10.50
2018-01-24T06:25:54.818Z,10.50
2018-01-24T06:28:22.297Z,10.50
2018-01-24T06:30:50.827Z,10.60
2018-01-24T06:33:18.582Z,10.60
2018-01-24T06:35:46.051Z,10.70
2018-01-24T06:38:13.531Z,10.50
2018-01-24T06:40:40.990Z,10.50
2018-01-24T06:43:08.468Z,10.30
2018-01-24T06:45:35.938Z,10.20
2018-01-24T06:48:04.190Z,10.00
2018-01-24T06:50:31.650Z,10.00
2018-01-24T06:52:59.126Z,9.90
2018-01-24T06:55:27.358Z,9.90
2018-01-24T06:57:54.840Z,9.80
2018-01-24T07:00:22.337Z,9.90
2018-01-24T07:02:49.821Z,9.90
2018-01-24T07:05:17.290Z,9.90
2018-01-24T07:07:44.774Z,9.90
2018-01-24T07:10:12.227Z,9.90
2018-01-24T07:12:51.633Z,9.90
2018-01-24T07:15:19.092Z,9.90
2018-01-24T07:17:46.557Z,9.90
2018-01-24T07:20:14.030Z,9.90
2018-01-24T07:22:41.507Z,9.90
2018-01-24T07:25:08.974Z,9.90
2018-01-24T07:27:36.436Z,9.90
2018-01-24T07:30:03.917Z,9.90
2018-01-24T07:32:32.152Z,10.10
2018-01-24T07:34:59.629Z,10.10
2018-01-24T07:37:27.866Z,10.10
2018-01-24T07:39:55.354Z,10.20
2018-01-24T07:42:22.822Z,10.20
2018-01-24T07:44:50.307Z,10.30
2018-01-24T07:47:17.774Z,10.40
2018-01-24T07:49:45.251Z,10.40
2018-01-24T07:52:12.727Z,10.40
2018-01-24T07:54:40.963Z,10.40
2018-01-24T07:57:08.430Z,10.40
2018-01-24T07:59:35.927Z,10.40
2018-01-24T08:02:03.398Z,10.30
2018-01-24T08:04:30.875Z,10.30
2018-01-24T08:06:59.111Z,10.30
2018-01-24T08:09:26.591Z,10.30
2018-01-24T08:11:54.069Z,10.40
2018-01-24T08:14:21.539Z,10.40
2018-01-24T08:16:49.770Z,10.30
2018-01-24T08:19:17.256Z,10.30
2018-01-24T08:21:45.495Z,10.30
2018-01-24T08:24:12.976Z,10.30
2018-01-24T08:26:40.434Z,10.40
2018-01-24T08:29:07.915Z,10.50
2018-01-24T08:31:39.171Z,10.50
2018-01-24T08:34:07.427Z,10.50
2018-01-24T08:36:34.898Z,10.50
2018-01-24T08:39:03.137Z,10.50
2018-01-24T08:41:30.602Z,10.60
2018-01-24T08:43:58.080Z,10.60
2018-01-24T08:46:25.558Z,10.50
2018-01-24T08:48:53.799Z,10.60
2018-01-24T08:51:21.363Z,10.60
2018-01-24T08:53:48.895Z,10.50
2018-01-24T08:56:17.084Z,10.60
2018-01-24T08:58:44.564Z,10.60
2018-01-24T09:01:29.575Z,10.50
2018-01-24T09:04:14.724Z,10.60
2018-01-24T09:07:00.665Z,10.70
2018-01-24T09:09:45.851Z,10.70
2018-01-24T09:12:31.094Z,10.70
2018-01-24T09:15:16.247Z,10.70
2018-01-24T09:18:01.419Z,10.70
2018-01-24T09:20:47.008Z,10.80
2018-01-24T09:23:39.080Z,10.70
2018-01-24T09:26:06.561Z,10.90
2018-01-24T09:28:34.031Z,10.90
2018-01-24T09:31:01.515Z,10.90
2018-01-24T09:33:29.008Z,11.00
2018-01-24T09:35:56.491Z,11.00
2018-01-24T09:38:23.964Z,11.00
2018-01-24T09:40:51.442Z,11.00
2018-01-24T09:43:19.680Z,11.10
2018-01-24T09:45:47.152Z,11.10
2018-01-24T09:48:14.619Z,11.20
2018-01-24T09:50:42.188Z,11.20
2018-01-24T09:53:10.420Z,11.20
2018-01-24T09:55:37.901Z,11.20
2018-01-24T09:58:05.365Z,11.20
2018-01-24T10:00:32.841Z,11.30
2018-01-24T10:03:01.073Z,11.40
2018-01-24T10:05:28.560Z,11.40
2018-01-24T10:07:56.039Z,11.40
2018-01-24T10:10:24.277Z,11.40
2018-01-24T10:12:51.758Z,11.40
2018-01-24T10:15:19.229Z,11.50
2018-01-24T10:17:47.467Z,11.60
2018-01-24T10:20:15.699Z,11.60
2018-01-24T10:22:43.174Z,11.60
2018-01-24T10:25:10.652Z,11.50
2018-01-24T10:27:38.131Z,11.50
2018-01-24T10:30:05.603Z,11.60
2018-01-24T10:32:33.079Z,11.50
2018-01-24T10:35:01.322Z,11.50
2018-01-24T10:37:28.803Z,11.50
2018-01-24T10:39:56.275Z,11.60
2018-01-24T10:42:24.523Z,11.80
2018-01-24T10:44:51.999Z,11.80
2018-01-24T10:47:19.497Z,11.80
2018-01-24T10:49:46.968Z,11.90
2018-01-24T10:52:14.442Z,11.90
2018-01-24T10:54:41.919Z,11.90
2018-01-24T10:57:09.401Z,12.10
2018-01-24T10:59:37.631Z,12.20
2018-01-24T11:02:05.111Z,12.20
2018-01-24T11:04:32.579Z,12.30
2018-01-24T11:07:00.864Z,12.30
2018-01-24T11:09:29.127Z,12.20
2018-01-24T11:11:56.595Z,12.20
2018-01-24T11:14:24.848Z,12.30
2018-01-24T11:16:52.327Z,12.30
2018-01-24T11:19:19.806Z,12.20
2018-01-24T11:21:48.043Z,12.30
2018-01-24T11:24:15.519Z,12.30
2018-01-24T11:26:43.758Z,12.40
2018-01-24T11:29:12.165Z,12.40
2018-01-24T11:31:39.638Z,12.40
2018-01-24T11:34:07.883Z,12.40
2018-01-24T11:36:36.130Z,12.40
2018-01-24T11:39:03.610Z,12.40
2018-01-24T11:41:31.074Z,12.50
2018-01-24T11:43:58.549Z,12.40
2018-01-24T11:46:26.025Z,12.40
2018-01-24T11:48:53.490Z,12.30
2018-01-24T11:51:21.723Z,12.30
2018-01-24T11:53:49.203Z,12.30
2018-01-24T11:56:16.679Z,12.30
2018-01-24T11:58:44.916Z,12.30
2018-01-24T12:01:12.402Z,12.30
2018-01-24T12:03:39.868Z,12.40
2018-01-24T12:06:07.350Z,12.40
2018-01-24T12:08:34.826Z,12.40
2018-01-24T12:11:02.294Z,12.40
2018-01-24T12:13:29.768Z,12.40
2018-01-24T12:15:57.251Z,12.40
2018-01-24T12:18:25.244Z,12.40
2018-01-24T12:20:53.556Z,12.40
2018-01-24T12:23:21.029Z,12.40
2018-01-24T12:25:48.517Z,12.30
2018-01-24T12:28:15.975Z,12.40
2018-01-24T12:30:43.449Z,12.30
2018-01-24T12:33:11.679Z,12.40
2018-01-24T12:35:39.172Z,12.40
2018-01-24T12:38:06.642Z,12.40
2018-01-24T12:40:34.904Z,12.50
2018-01-24T12:43:02.371Z,12.50
2018-01-24T12:45:30.594Z,12.60
2018-01-24T12:47:58.132Z,12.60
2018-01-24T12:50:25.615Z,12.60
2018-01-24T12:52:53.111Z,12.70
2018-01-24T12:55:20.580Z,12.80
2018-01-24T12:57:48.054Z,12.80
2018-01-24T13:00:16.299Z,12.70
2018-01-24T13:02:43.776Z,12.60
2018-01-24T13:05:11.239Z,12.60
2018-01-24T13:07:39.486Z,12.60
2018-01-24T13:10:06.983Z,12.60
2018-01-24T13:12:35.210Z,12.60
2018-01-24T13:15:02.687Z,12.50
2018-01-24T13:17:30.195Z,12.60
2018-01-24T13:19:58.400Z,12.80
2018-01-24T13:22:25.870Z,12.80
2018-01-24T13:24:53.345Z,12.70
2018-01-24T13:27:20.822Z,12.70
2018-01-24T13:29:49.050Z,12.60
2018-01-24T13:32:16.523Z,12.60
2018-01-24T13:34:45.482Z,12.60
2018-01-24T13:37:12.975Z,12.50
2018-01-24T13:39:40.445Z,12.60
2018-01-24T13:42:07.923Z,12.60
2018-01-24T13:44:36.203Z,12.50
2018-01-24T13:47:03.639Z,12.50
2018-01-24T13:49:31.103Z,12.50
2018-01-24T13:52:04.515Z,12.50
2018-01-24T13:54:32.743Z,12.40
2018-01-24T13:57:00.228Z,12.40
2018-01-24T13:59:27.698Z,12.30
2018-01-24T14:01:55.951Z,12.30
2018-01-24T14:04:23.432Z,12.30
2018-01-24T14:06:50.899Z,12.30
2018-01-24T14:09:19.139Z,12.30
2018-01-24T14:11:46.603Z,12.30
2018-01-24T14:14:14.093Z,12.20
2018-01-24T14:16:42.318Z,12.20
2018-01-24T14:19:09.794Z,12.20
2018-01-24T14:21:37.262Z,12.20
2018-01-24T14:24:04.758Z,12.20
2018-01-24T14:26:32.992Z,12.20
2018-01-24T14:29:00.470Z,12.10
2018-01-24T14:31:27.941Z,12.20
2018-01-24T14:33:56.182Z,12.20
2018-01-24T14:36:23.655Z,12.10
2018-01-24T14:38:51.134Z,12.10
2018-01-24T14:41:19.371Z,12.20
2018-01-24T14:43:46.850Z,12.20
2018-01-24T14:46:14.315Z,12.20
2018-01-24T14:48:41.787Z,12.10
2018-01-24T14:51:10.024Z,12.20
2018-01-24T14:53:37.498Z,12.20
2018-01-24T14:56:04.969Z,12.20
2018-01-24T14:58:33.210Z,12.20
2018-01-24T15:01:01.087Z,12.20
2018-01-24T15:03:28.572Z,12.20
2018-01-24T15:05:56.086Z,12.20
2018-01-24T15:08:23.566Z,12.20
2018-01-24T15:10:51.036Z,12.20
2018-01-24T15:13:18.523Z,12.30
2018-01-24T15:15:46.750Z,12.30
2018-01-24T15:18:14.225Z,12.30
2018-01-24T15:20:41.710Z,12.30
2018-01-24T15:23:09.958Z,12.30
2018-01-24T15:25:37.438Z,12.30
2018-01-24T15:28:05.685Z,12.30
2018-01-24T15:30:33.156Z,12.30
2018-01-24T15:33:00.644Z,12.30
2018-01-24T15:35:28.866Z,12.30
2018-01-24T15:37:56.349Z,12.30
2018-01-24T15:40:23.823Z,12.30
2018-01-24T15:42:51.310Z,12.20
2018-01-24T15:45:18.777Z,12.20
2018-01-24T15:47:46.248Z,12.20
2018-01-24T15:50:13.738Z,12.20
2018-01-24T15:52:41.213Z,12.20
2018-01-24T15:55:08.686Z,12.20
2018-01-24T15:57:36.918Z,12.20
2018-01-24T16:00:05.519Z,12.20
2018-01-24T16:02:32.987Z,12.10
2018-01-24T16:05:00.466Z,12.20
2018-01-24T16:07:29.276Z,12.10
2018-01-24T16:09:56.759Z,12.10
2018-01-24T16:12:24.232Z,12.20
2018-01-24T16:14:51.719Z,12.10
2018-01-24T16:17:19.956Z,12.00
2018-01-24T16:19:47.432Z,12.00
2018-01-24T16:22:14.908Z,12.00
2018-01-24T16:24:42.371Z,12.00
2018-01-24T16:27:10.609Z,11.90
2018-01-24T16:29:38.087Z,11.90
2018-01-24T16:32:05.555Z,11.90
2018-01-24T16:34:33.642Z,11.90
2018-01-24T16:37:01.198Z,11.90
2018-01-24T16:39:29.456Z,11.90
2018-01-24T16:41:56.918Z,11.90
2018-01-24T16:44:24.402Z,11.90
2018-01-24T16:46:52.631Z,11.90
2018-01-24T16:49:20.115Z,11.90
2018-01-24T16:51:47.577Z,11.90
2018-01-24T16:54:15.055Z,12.00
2018-01-24T16:56:43.300Z,11.90
2018-01-24T16:59:10.770Z,11.90
2018-01-24T17:01:38.239Z,11.90
2018-01-24T17:04:06.484Z,12.10
2018-01-24T17:06:33.954Z,12.00
2018-01-24T17:09:01.434Z,12.00
2018-01-24T17:11:29.675Z,12.00
2018-01-24T17:13:57.164Z,12.00
2018-01-24T17:16:24.638Z,12.00
2018-01-24T17:18:52.123Z,12.10
2018-01-24T17:21:19.587Z,12.20
2018-01-24T17:23:47.070Z,12.10
2018-01-24T17:26:14.543Z,12.20
2018-01-24T17:28:42.027Z,12.20
2018-01-24T17:31:10.267Z,12.10
2018-01-24T17:33:37.796Z,12.10
2018-01-24T17:36:05.273Z,12.10
2018-01-24T17:38:32.782Z,12.10
2018-01-24T17:41:01.019Z,12.20
2018-01-24T17:43:28.498Z,12.20
2018-01-24T17:45:55.967Z,12.10
2018-01-24T17:48:24.210Z,12.10
2018-01-24T17:50:51.685Z,12.10
2018-01-24T17:53:19.154Z,12.20
2018-01-24T17:55:47.395Z,12.20
2018-01-24T17:58:14.868Z,12.20
2018-01-24T18:00:42.343Z,12.20
2018-01-24T18:03:09.815Z,12.20
2018-01-24T18:05:38.075Z,12.30
2018-01-24T18:08:05.548Z,12.30
2018-01-24T18:10:33.781Z,12.40
2018-01-24T18:13:01.263Z,12.40
2018-01-24T18:15:28.745Z,12.30
2018-01-24T18:17:56.986Z,12.40
2018-01-24T18:20:24.454Z,12.40
2018-01-24T18:22:51.927Z,12.30
2018-01-24T18:25:20.177Z,12.30
2018-01-24T18:27:47.640Z,12.30
2018-01-24T18:30:18.608Z,12.30
2018-01-24T18:32:46.855Z,12.30
2018-01-24T18:35:14.345Z,12.30
2018-01-24T18:37:42.584Z,12.20
2018-01-24T18:40:10.067Z,12.20
2018-01-24T18:42:37.542Z,12.20
2018-01-24T18:45:05.786Z,12.20
2018-01-24T18:47:33.252Z,12.20
2018-01-24T18:50:00.731Z,12.20
2018-01-24T18:52:28.208Z,12.10
2018-01-24T18:54:55.695Z,12.20
2018-01-24T18:57:23.174Z,12.20
2018-01-24T18:59:50.644Z,12.20
2018-01-24T19:02:18.119Z,12.20
2018-01-24T19:04:46.368Z,12.20
2018-01-24T19:07:13.854Z,12.20
2018-01-24T19:09:41.326Z,12.20
2018-01-24T19:12:09.581Z,12.20
2018-01-24T19:14:37.050Z,12.20
2018-01-24T19:17:05.287Z,12.20
2018-01-24T19:19:32.773Z,12.20
2018-01-24T19:22:00.274Z,12.30
2018-01-24T19:24:28.487Z,12.40
2018-01-24T19:26:55.957Z,12.30
2018-01-24T19:29:23.433Z,12.30
2018-01-24T19:31:51.661Z,12.20
2018-01-24T19:34:19.154Z,12.20
2018-01-24T19:36:46.614Z,12.20
2018-01-24T19:39:14.079Z,12.30
2018-01-24T19:41:42.324Z,12.20
2018-01-24T19:44:09.796Z,12.20
2018-01-24T19:46:37.271Z,12.20
2018-01-24T19:49:04.736Z,12.30
2018-01-24T19:51:32.974Z,12.20
2018-01-24T19:54:01.220Z,12.20
2018-01-24T19:56:28.703Z,12.20
2018-01-24T19:58:56.210Z,12.30
2018-01-24T20:01:24.457Z,12.20
2018-01-24T20:03:51.910Z,12.20
2018-01-24T20:06:20.176Z,12.20
2018-01-24T20:08:47.670Z,12.20
2018-01-24T20:11:15.159Z,12.30
2018-01-24T20:13:42.628Z,12.30
2018-01-24T20:16:10.109Z,12.20
2018-01-24T20:18:37.575Z,12.30
2018-01-24T20:21:05.055Z,12.30
2018-01-24T20:23:32.522Z,12.20
2018-01-24T20:26:00.024Z,12.20
2018-01-24T20:28:27.508Z,12.30
2018-01-24T20:30:54.991Z,12.30
2018-01-24T20:33:22.472Z,12.30
2018-01-24T20:35:50.707Z,12.30
2018-01-24T20:38:18.183Z,12.30
2018-01-24T20:40:45.673Z,12.30
2018-01-24T20:43:13.903Z,12.20
2018-01-24T20:45:41.385Z,12.20
2018-01-24T20:48:08.853Z,12.30
2018-01-24T20:50:37.099Z,12.30
2018-01-24T20:53:04.587Z,12.30
2018-01-24T20:55:32.838Z,12.40
2018-01-24T20:58:00.333Z,12.30
2018-01-24T21:00:27.806Z,12.40
2018-01-24T21:02:55.276Z,12.30
2018-01-24T21:05:22.750Z,12.30
2018-01-24T21:07:50.220Z,12.30
2018-01-24T21:10:17.704Z,12.30
2018-01-24T21:12:45.162Z,12.20
2018-01-24T21:15:12.630Z,12.30
2018-01-24T21:17:40.875Z,12.20
2018-01-24T21:20:08.355Z,12.20
2018-01-24T21:22:35.821Z,12.20
2018-01-24T21:25:04.075Z,12.20
2018-01-24T21:27:31.547Z,12.20
2018-01-24T21:30:10.982Z,12.20
2018-01-24T21:32:50.303Z,12.20
2018-01-24T21:35:29.719Z,12.10
2018-01-24T21:37:57.198Z,12.20
2018-01-24T21:40:25.462Z,12.10
2018-01-24T21:42:52.942Z,12.00
2018-01-24T21:45:21.008Z,12.10
2018-01-24T21:47:49.036Z,12.00
2018-01-24T21:50:16.888Z,12.00
2018-01-24T21:52:45.172Z,12.00
2018-01-24T21:55:12.599Z,12.00
2018-01-24T21:57:40.073Z,12.00
2018-01-24T22:00:08.306Z,11.90
2018-01-24T22:02:35.792Z,11.90
2018-01-24T22:05:03.265Z,11.90
2018-01-24T22:07:31.524Z,11.90
2018-01-24T22:09:58.995Z,11.90
2018-01-24T22:12:26.467Z,11.80
2018-01-24T22:14:54.707Z,11.80
2018-01-24T22:17:22.184Z,11.80
2018-01-24T22:19:49.651Z,11.70
2018-01-24T22:22:17.900Z,11.70
2018-01-24T22:24:45.368Z,11.70
2018-01-24T22:27:12.846Z,11.70
2018-01-24T22:29:41.091Z,11.70
2018-01-24T22:32:08.572Z,11.70
2018-01-24T22:34:36.040Z,11.70
2018-01-24T22:37:04.307Z,11.80
2018-01-24T22:39:32.553Z,11.70
2018-01-24T22:42:00.032Z,11.70
2018-01-24T22:44:27.491Z,11.80
2018-01-24T22:46:54.964Z,11.80
2018-01-24T22:49:23.203Z,11.80
2018-01-24T22:51:50.673Z,11.70
2018-01-24T22:54:18.151Z,11.70
2018-01-24T22:56:45.633Z,11.70
2018-01-24T22:59:15.723Z,11.70
2018-01-24T23:01:43.208Z,11.70
2018-01-24T23:04:11.444Z,11.70
2018-01-24T23:06:38.927Z,11.70
2018-01-24T23:09:09.074Z,11.70
2018-01-24T23:11:36.554Z,11.70
2018-01-24T23:14:04.029Z,11.70
2018-01-24T23:16:31.493Z,11.70
2018-01-24T23:18:58.954Z,11.70
2018-01-24T23:21:26.431Z,11.70
2018-01-24T23:23:53.897Z,11.60
2018-01-24T23:26:21.379Z,11.70
2018-01-24T23:28:48.848Z,11.70
2018-01-24T23:31:16.327Z,11.70
2018-01-24T23:33:43.796Z,11.80
2018-01-24T23:36:11.269Z,11.80
2018-01-24T23:38:38.746Z,11.80
2018-01-24T23:41:06.217Z,11.80
2018-01-24T23:43:33.694Z,11.80
2018-01-24T23:46:01.213Z,11.80
2018-01-24T23:48:28.670Z,11.80
2018-01-24T23:50:56.142Z,11.90
2018-01-24T23:53:24.384Z,11.90
2018-01-24T23:55:51.850Z,11.90
2018-01-24T23:58:19.338Z,11.90
